createdAt,value
2017-05-29T00:00:36.149Z,6.66
2017-05-29T00:03:02.850Z,6.84
2017-05-29T00:05:29.550Z,7.12
2017-05-29T00:07:56.304Z,5.84
2017-05-29T00:10:23.002Z,6.78
2017-05-29T00:12:49.767Z,5.60
2017-05-29T00:15:16.458Z,5.96
2017-05-29T00:17:43.155Z,5.94
2017-05-29T00:20:09.882Z,6.22
2017-05-29T00:22:36.657Z,6.04
2017-05-29T00:25:03.357Z,6.42
2017-05-29T00:27:30.058Z,6.34
2017-05-29T00:29:56.796Z,6.40
2017-05-29T00:32:23.494Z,7.60
2017-05-29T00:34:50.262Z,5.60
2017-05-29T00:37:16.959Z,6.18
2017-05-29T00:39:43.662Z,6.84
2017-05-29T00:42:10.395Z,6.80
2017-05-29T00:44:37.118Z,6.74
2017-05-29T00:47:03.817Z,7.20
2017-05-29T00:49:30.568Z,5.92
2017-05-29T00:51:57.295Z,6.64
2017-05-29T00:54:23.988Z,7.24
2017-05-29T00:56:50.726Z,7.22
2017-05-29T00:59:17.442Z,6.60
2017-05-29T01:01:44.176Z,7.76
2017-05-29T01:04:10.934Z,9.04
2017-05-29T01:06:37.626Z,6.92
2017-05-29T01:09:04.310Z,6.68
2017-05-29T01:11:31.067Z,5.78
2017-05-29T01:13:57.795Z,6.56
2017-05-29T01:16:24.481Z,6.98
2017-05-29T01:18:51.220Z,6.82
2017-05-29T01:21:17.919Z,5.98
2017-05-29T01:23:44.646Z,7.00
2017-05-29T01:26:11.338Z,6.28
2017-05-29T01:28:38.097Z,6.36
2017-05-29T01:31:04.792Z,6.78
2017-05-29T01:33:31.514Z,5.56
2017-05-29T01:35:58.291Z,5.68
2017-05-29T01:38:24.988Z,6.56
2017-05-29T01:40:51.669Z,6.08
2017-05-29T01:43:18.398Z,7.12
2017-05-29T01:45:45.079Z,6.62
2017-05-29T01:48:11.782Z,5.62
2017-05-29T01:50:38.558Z,6.48
2017-05-29T01:53:05.250Z,6.80
2017-05-29T01:55:32.003Z,7.08
2017-05-29T01:57:58.782Z,6.32
2017-05-29T02:00:25.487Z,6.94
2017-05-29T02:02:52.207Z,6.80
2017-05-29T02:05:18.939Z,7.70
2017-05-29T02:07:45.631Z,6.34
2017-05-29T02:10:12.335Z,6.52
2017-05-29T02:12:39.086Z,6.64
2017-05-29T02:15:05.773Z,6.92
2017-05-29T02:17:32.476Z,7.14
2017-05-29T02:19:59.225Z,6.54
2017-05-29T02:22:25.931Z,7.22
2017-05-29T02:24:52.660Z,7.12
2017-05-29T02:27:19.358Z,7.44
2017-05-29T02:29:46.046Z,7.12
2017-05-29T02:32:12.776Z,7.30
2017-05-29T02:34:39.466Z,6.90
2017-05-29T02:37:06.235Z,6.60
2017-05-29T02:39:32.923Z,6.74
2017-05-29T02:41:59.638Z,6.40
2017-05-29T02:44:26.381Z,7.48
2017-05-29T02:46:53.110Z,6.78
2017-05-29T02:49:19.799Z,7.22
2017-05-29T02:51:46.523Z,6.58
2017-05-29T02:54:13.299Z,6.80
2017-05-29T02:56:39.986Z,7.20
2017-05-29T02:59:06.672Z,7.26
2017-05-29T03:01:33.495Z,7.04
2017-05-29T03:04:00.198Z,6.76
2017-05-29T03:06:26.899Z,7.04
2017-05-29T03:08:53.634Z,7.18
2017-05-29T03:11:20.331Z,7.12
2017-05-29T03:13:47.068Z,6.72
2017-05-29T03:16:13.814Z,7.36
2017-05-29T03:18:40.511Z,7.30
2017-05-29T03:21:07.238Z,7.46
2017-05-29T03:23:33.969Z,6.48
2017-05-29T03:26:00.672Z,6.70
2017-05-29T03:28:27.394Z,7.78
2017-05-29T03:30:54.225Z,6.90
2017-05-29T03:33:20.899Z,7.60
2017-05-29T03:35:47.627Z,7.34
2017-05-29T03:38:14.371Z,6.74
2017-05-29T03:40:41.106Z,7.68
2017-05-29T03:43:07.794Z,9.64
2017-05-29T03:45:34.534Z,8.44
2017-05-29T03:48:01.235Z,6.88
2017-05-29T03:50:27.943Z,6.92
2017-05-29T03:52:54.675Z,6.92
2017-05-29T03:55:21.369Z,7.12
2017-05-29T03:57:48.147Z,7.98
2017-05-29T04:00:21.849Z,7.90
2017-05-29T04:02:48.602Z,7.14
2017-05-29T04:05:15.293Z,8.00
2017-05-29T04:07:41.978Z,6.86
2017-05-29T04:10:08.754Z,7.22
2017-05-29T04:12:35.502Z,7.82
2017-05-29T04:15:02.264Z,7.14
2017-05-29T04:17:29.003Z,7.08
2017-05-29T04:19:55.742Z,7.46
2017-05-29T04:22:22.470Z,6.98
2017-05-29T04:24:49.194Z,7.06
2017-05-29T04:27:15.883Z,7.20
2017-05-29T04:29:42.670Z,6.84
2017-05-29T04:32:09.361Z,7.30
2017-05-29T04:34:36.078Z,8.10
2017-05-29T04:37:02.844Z,8.04
2017-05-29T04:39:29.579Z,8.44
2017-05-29T04:41:56.292Z,7.78
2017-05-29T04:44:23.038Z,8.36
2017-05-29T04:46:50.598Z,8.16
2017-05-29T04:49:17.282Z,7.38
2017-05-29T04:51:44.016Z,7.64
2017-05-29T04:54:10.738Z,10.60
2017-05-29T04:56:37.435Z,7.58
2017-05-29T04:59:04.249Z,8.20
2017-05-29T05:01:30.952Z,7.36
2017-05-29T05:03:57.726Z,7.28
2017-05-29T05:06:24.467Z,7.52
2017-05-29T05:08:51.167Z,6.64
2017-05-29T05:11:17.903Z,6.90
2017-05-29T05:13:44.649Z,6.14
2017-05-29T05:16:11.347Z,6.44
2017-05-29T05:18:38.055Z,6.50
2017-05-29T05:21:04.783Z,6.90
2017-05-29T05:23:31.526Z,5.74
2017-05-29T05:25:58.223Z,5.30
2017-05-29T05:28:24.963Z,4.78
2017-05-29T05:30:51.651Z,5.08
2017-05-29T05:33:18.350Z,5.74
2017-05-29T05:35:45.098Z,6.90
2017-05-29T05:38:11.829Z,5.98
2017-05-29T05:40:38.526Z,5.46
2017-05-29T05:43:05.262Z,5.26
2017-05-29T05:45:31.991Z,5.06
2017-05-29T05:47:58.711Z,6.26
2017-05-29T05:50:25.450Z,5.04
2017-05-29T05:52:52.150Z,5.40
2017-05-29T05:55:18.860Z,4.10
2017-05-29T05:57:45.622Z,4.82
2017-05-29T06:00:12.343Z,4.64
2017-05-29T06:02:39.034Z,5.30
2017-05-29T06:05:05.782Z,4.50
2017-05-29T06:07:32.562Z,5.20
2017-05-29T06:09:59.284Z,9.10
2017-05-29T06:12:26.022Z,5.82
2017-05-29T06:14:52.743Z,5.28
2017-05-29T06:17:19.535Z,5.24
2017-05-29T06:19:46.314Z,4.50
2017-05-29T06:22:13.006Z,4.34
2017-05-29T06:24:39.773Z,6.26
2017-05-29T06:27:06.474Z,6.72
2017-05-29T06:29:33.169Z,4.98
2017-05-29T06:31:59.902Z,5.54
2017-05-29T06:34:26.590Z,4.70
2017-05-29T06:36:53.342Z,5.20
2017-05-29T06:39:20.047Z,5.16
2017-05-29T06:41:46.740Z,4.46
2017-05-29T06:44:13.490Z,5.44
2017-05-29T06:46:40.185Z,5.26
2017-05-29T06:49:06.882Z,5.12
2017-05-29T06:51:33.804Z,4.60
2017-05-29T06:54:00.620Z,4.58
2017-05-29T06:56:27.330Z,5.42
2017-05-29T06:58:54.147Z,5.00
2017-05-29T07:01:20.858Z,5.78
2017-05-29T07:03:47.646Z,5.34
2017-05-29T07:06:14.391Z,5.24
2017-05-29T07:08:41.147Z,5.36
2017-05-29T07:11:07.842Z,7.68
2017-05-29T07:13:34.594Z,5.20
2017-05-29T07:16:01.295Z,5.66
2017-05-29T07:18:28.063Z,5.92
2017-05-29T07:20:54.802Z,5.32
2017-05-29T07:23:21.571Z,4.84
2017-05-29T07:25:48.321Z,6.50
2017-05-29T07:28:15.066Z,5.70
2017-05-29T07:30:41.758Z,5.38
2017-05-29T07:33:08.452Z,5.56
2017-05-29T07:35:35.179Z,5.08
2017-05-29T07:38:01.938Z,5.04
2017-05-29T07:40:28.640Z,5.72
2017-05-29T07:42:55.334Z,5.32
2017-05-29T07:45:22.076Z,6.58
2017-05-29T07:47:48.794Z,11.36
2017-05-29T07:50:15.531Z,7.10
2017-05-29T07:52:42.231Z,7.70
2017-05-29T07:55:08.931Z,6.32
2017-05-29T07:57:35.682Z,5.66
2017-05-29T08:00:02.402Z,6.84
2017-05-29T08:02:29.113Z,5.22
2017-05-29T08:04:55.843Z,5.80
2017-05-29T08:07:22.565Z,6.26
2017-05-29T08:09:49.305Z,6.16
2017-05-29T08:12:15.994Z,5.52
2017-05-29T08:14:42.763Z,4.92
2017-05-29T08:17:09.446Z,6.46
2017-05-29T08:19:36.144Z,5.62
2017-05-29T08:22:02.905Z,4.90
2017-05-29T08:24:29.607Z,5.28
2017-05-29T08:26:56.306Z,6.78
2017-05-29T08:29:23.098Z,7.64
2017-05-29T08:31:49.797Z,5.66
2017-05-29T08:34:16.485Z,6.60
2017-05-29T08:36:43.239Z,6.04
2017-05-29T08:39:09.930Z,5.94
2017-05-29T08:41:36.655Z,4.94
2017-05-29T08:44:03.389Z,5.74
2017-05-29T08:46:30.077Z,7.14
2017-05-29T08:48:56.796Z,4.96
2017-05-29T08:51:23.546Z,6.38
2017-05-29T08:53:50.250Z,4.88
2017-05-29T08:56:16.978Z,5.60
2017-05-29T08:58:43.722Z,13.62
2017-05-29T09:01:10.414Z,5.66
2017-05-29T09:03:37.148Z,5.88
2017-05-29T09:06:03.843Z,6.00
2017-05-29T09:08:30.542Z,5.92
2017-05-29T09:10:57.266Z,6.26
2017-05-29T09:13:23.968Z,6.08
2017-05-29T09:15:50.662Z,6.00
2017-05-29T09:18:17.402Z,11.06
2017-05-29T09:20:44.090Z,5.18
2017-05-29T09:23:10.778Z,5.58
2017-05-29T09:25:37.538Z,7.48
2017-05-29T09:28:04.294Z,5.16
2017-05-29T09:30:31.027Z,5.84
2017-05-29T09:32:57.780Z,6.02
2017-05-29T09:35:24.506Z,6.00
2017-05-29T09:37:51.260Z,5.76
2017-05-29T09:40:18.019Z,7.06
2017-05-29T09:42:44.722Z,6.18
2017-05-29T09:45:11.418Z,5.00
2017-05-29T09:47:38.173Z,5.72
2017-05-29T09:50:04.874Z,6.74
2017-05-29T09:52:31.567Z,7.72
2017-05-29T09:54:58.291Z,5.00
2017-05-29T09:57:25.027Z,6.36
2017-05-29T09:59:51.779Z,6.42
2017-05-29T10:02:18.529Z,7.12
2017-05-29T10:04:45.218Z,6.50
2017-05-29T10:07:11.914Z,6.16
2017-05-29T10:09:38.641Z,6.82
2017-05-29T10:12:05.501Z,6.46
2017-05-29T10:14:32.198Z,6.10
2017-05-29T10:16:58.914Z,5.86
2017-05-29T10:19:25.678Z,6.34
2017-05-29T10:21:52.387Z,6.06
2017-05-29T10:24:19.090Z,6.32
2017-05-29T10:26:45.818Z,6.34
2017-05-29T10:29:12.502Z,6.16
2017-05-29T10:31:39.257Z,6.38
2017-05-29T10:34:05.967Z,6.40
2017-05-29T10:36:32.666Z,5.78
2017-05-29T10:38:59.410Z,7.80
2017-05-29T10:41:26.114Z,6.24
2017-05-29T10:43:52.801Z,6.22
2017-05-29T10:46:18.798Z,6.48
2017-05-29T10:48:45.502Z,6.74
2017-05-29T10:51:12.194Z,5.94
2017-05-29T10:53:38.983Z,6.44
2017-05-29T10:56:05.730Z,5.68
2017-05-29T10:58:32.426Z,6.24
2017-05-29T11:00:59.270Z,7.16
2017-05-29T11:03:25.966Z,6.58
2017-05-29T11:05:52.701Z,7.42
2017-05-29T11:08:19.465Z,6.80
2017-05-29T11:10:46.199Z,7.22
2017-05-29T11:13:12.890Z,7.20
2017-05-29T11:15:39.620Z,7.08
2017-05-29T11:18:06.320Z,6.42
2017-05-29T11:20:33.026Z,7.14
2017-05-29T11:22:59.752Z,6.62
2017-05-29T11:25:26.465Z,6.30
2017-05-29T11:27:53.195Z,6.64
2017-05-29T11:30:19.906Z,6.98
2017-05-29T11:32:46.722Z,6.38
2017-05-29T11:35:13.414Z,7.26
2017-05-29T11:37:40.101Z,6.92
2017-05-29T11:40:06.830Z,7.22
2017-05-29T11:42:33.574Z,7.12
2017-05-29T11:45:00.270Z,6.86
2017-05-29T11:47:26.958Z,7.78
2017-05-29T11:49:53.694Z,7.14
2017-05-29T11:52:20.418Z,7.34
2017-05-29T11:54:47.110Z,6.40
2017-05-29T11:57:13.853Z,7.84
2017-05-29T11:59:40.557Z,7.90
2017-05-29T12:02:07.263Z,6.64
2017-05-29T12:04:34.015Z,7.46
2017-05-29T12:07:00.707Z,7.02
2017-05-29T12:09:27.463Z,7.06
2017-05-29T12:11:54.213Z,6.90
2017-05-29T12:14:20.921Z,7.78
2017-05-29T12:16:47.611Z,7.72
2017-05-29T12:19:14.342Z,7.42
2017-05-29T12:21:41.040Z,7.02
2017-05-29T12:24:07.734Z,8.40
2017-05-29T12:26:34.473Z,7.64
2017-05-29T12:29:01.162Z,8.12
2017-05-29T12:31:27.859Z,7.28
2017-05-29T12:33:54.618Z,8.66
2017-05-29T12:36:21.307Z,8.52
2017-05-29T12:38:48.006Z,9.42
2017-05-29T12:41:14.746Z,9.54
2017-05-29T12:43:41.458Z,9.46
2017-05-29T12:46:08.174Z,9.14
2017-05-29T12:48:35.275Z,9.72
2017-05-29T12:51:01.972Z,9.96
2017-05-29T12:53:28.666Z,10.86
2017-05-29T12:55:55.393Z,12.92
2017-05-29T12:58:22.113Z,12.98
2017-05-29T13:00:48.835Z,12.32
2017-05-29T13:03:15.846Z,13.48
2017-05-29T13:05:42.563Z,12.54
2017-05-29T13:08:09.259Z,12.96
2017-05-29T13:10:36.031Z,12.80
2017-05-29T13:13:02.734Z,13.24
2017-05-29T13:15:29.474Z,11.42
2017-05-29T13:17:56.199Z,13.84
2017-05-29T13:20:22.955Z,13.36
2017-05-29T13:22:49.720Z,13.12
2017-05-29T13:25:16.454Z,14.08
2017-05-29T13:27:43.147Z,13.92
2017-05-29T13:30:09.882Z,14.12
2017-05-29T13:32:36.619Z,14.62
2017-05-29T13:35:03.324Z,15.82
2017-05-29T13:37:30.064Z,14.58
2017-05-29T13:39:56.758Z,14.32
2017-05-29T13:42:23.463Z,12.94
2017-05-29T13:44:50.234Z,14.22
2017-05-29T13:47:16.933Z,14.22
2017-05-29T13:49:43.671Z,13.58
2017-05-29T13:52:10.422Z,13.90
2017-05-29T13:54:37.125Z,14.44
2017-05-29T13:57:03.862Z,14.82
2017-05-29T13:59:30.601Z,13.54
2017-05-29T14:01:57.294Z,13.78
2017-05-29T14:04:23.998Z,14.70
2017-05-29T14:06:50.896Z,15.00
2017-05-29T14:09:17.596Z,14.22
2017-05-29T14:11:44.334Z,15.06
2017-05-29T14:14:11.040Z,15.00
2017-05-29T14:16:37.763Z,13.42
2017-05-29T14:19:04.497Z,14.15
2017-05-29T14:21:31.185Z,14.93
2017-05-29T14:23:57.878Z,15.27
2017-05-29T14:26:24.678Z,15.80
2017-05-29T14:28:51.391Z,14.15
2017-05-29T14:31:18.092Z,13.77
2017-05-29T14:33:44.851Z,14.30
2017-05-29T14:36:11.568Z,13.28
2017-05-29T14:38:38.261Z,13.60
2017-05-29T14:41:05.422Z,13.28
2017-05-29T14:43:32.157Z,13.18
2017-05-29T14:45:58.865Z,14.20
2017-05-29T14:48:25.634Z,12.24
2017-05-29T14:50:52.339Z,13.76
2017-05-29T14:53:19.065Z,13.68
2017-05-29T14:55:45.806Z,14.20
2017-05-29T14:58:12.607Z,14.72
2017-05-29T15:00:39.293Z,14.53
2017-05-29T15:03:06.099Z,14.12
2017-05-29T15:05:32.825Z,14.05
2017-05-29T15:07:59.515Z,14.97
2017-05-29T15:10:26.252Z,13.86
2017-05-29T15:12:52.962Z,13.50
2017-05-29T15:15:19.880Z,14.06
2017-05-29T15:17:46.621Z,13.26
2017-05-29T15:20:13.314Z,12.96
2017-05-29T15:22:40.021Z,11.96
2017-05-29T15:25:06.749Z,11.20
2017-05-29T15:27:33.442Z,12.48
2017-05-29T15:30:00.186Z,11.54
2017-05-29T15:32:26.882Z,10.98
2017-05-29T15:34:53.578Z,10.82
2017-05-29T15:37:20.365Z,12.22
2017-05-29T15:39:47.158Z,9.76
2017-05-29T15:42:13.874Z,9.52
2017-05-29T15:44:40.598Z,8.08
2017-05-29T15:47:07.294Z,8.00
2017-05-29T15:49:34.022Z,7.68
2017-05-29T15:52:00.701Z,8.32
2017-05-29T15:54:27.419Z,8.64
2017-05-29T15:56:54.215Z,8.68
2017-05-29T15:59:20.919Z,8.30
2017-05-29T16:01:47.618Z,8.90
2017-05-29T16:04:14.379Z,8.50
2017-05-29T16:06:41.122Z,9.10
2017-05-29T16:09:07.811Z,8.70
2017-05-29T16:11:34.530Z,9.04
2017-05-29T16:14:01.272Z,8.04
2017-05-29T16:16:27.970Z,8.36
2017-05-29T16:18:54.682Z,7.88
2017-05-29T16:21:21.559Z,7.32
2017-05-29T16:23:48.250Z,7.82
2017-05-29T16:26:14.950Z,8.30
2017-05-29T16:28:41.677Z,8.12
2017-05-29T16:31:08.386Z,8.48
2017-05-29T16:33:35.070Z,8.58
2017-05-29T16:36:01.887Z,8.78
2017-05-29T16:38:28.594Z,7.96
2017-05-29T16:40:55.302Z,7.52
2017-05-29T16:43:22.055Z,7.60
2017-05-29T16:45:48.766Z,8.38
2017-05-29T16:48:15.525Z,8.64
2017-05-29T16:50:42.222Z,8.38
2017-05-29T16:53:08.928Z,8.42
2017-05-29T16:55:35.654Z,8.36
2017-05-29T16:58:02.386Z,10.92
2017-05-29T17:00:29.070Z,8.28
2017-05-29T17:02:55.828Z,9.56
2017-05-29T17:05:22.543Z,8.56
2017-05-29T17:07:49.882Z,8.56
2017-05-29T17:10:16.689Z,10.72
2017-05-29T17:12:43.429Z,9.80
2017-05-29T17:15:10.123Z,8.40
2017-05-29T17:17:36.838Z,9.06
2017-05-29T17:20:03.559Z,8.90
2017-05-29T17:22:30.275Z,8.90
2017-05-29T17:24:57.035Z,9.80
2017-05-29T17:27:23.789Z,8.90
2017-05-29T17:29:50.510Z,11.14
2017-05-29T17:32:17.250Z,9.00
2017-05-29T17:34:43.970Z,10.02
2017-05-29T17:37:10.670Z,9.16
2017-05-29T17:39:37.441Z,9.46
2017-05-29T17:42:04.134Z,10.20
2017-05-29T17:44:30.829Z,9.78
2017-05-29T17:46:57.579Z,9.00
2017-05-29T17:49:24.290Z,8.98
2017-05-29T17:51:51.059Z,9.52
2017-05-29T17:54:17.800Z,9.90
2017-05-29T17:56:44.495Z,10.82
2017-05-29T17:59:11.196Z,8.78
2017-05-29T18:01:37.926Z,10.46
2017-05-29T18:04:04.626Z,10.42
2017-05-29T18:06:31.318Z,10.80
2017-05-29T18:08:58.050Z,9.44
2017-05-29T18:11:24.745Z,9.76
2017-05-29T18:13:51.486Z,10.00
2017-05-29T18:16:18.287Z,8.16
2017-05-29T18:18:44.988Z,9.74
2017-05-29T18:21:11.686Z,8.66
2017-05-29T18:23:38.414Z,9.14
2017-05-29T18:26:05.108Z,9.42
2017-05-29T18:28:31.844Z,10.42
2017-05-29T18:30:58.542Z,10.54
2017-05-29T18:33:25.242Z,8.68
2017-05-29T18:35:51.984Z,9.24
2017-05-29T18:38:18.687Z,8.04
2017-05-29T18:40:45.429Z,6.68
2017-05-29T18:43:12.123Z,9.08
2017-05-29T18:45:38.838Z,10.90
2017-05-29T18:48:05.587Z,13.98
2017-05-29T18:50:31.546Z,10.78
2017-05-29T18:52:58.238Z,10.54
2017-05-29T18:55:24.966Z,10.42
2017-05-29T18:57:51.687Z,12.58
2017-05-29T19:00:18.419Z,11.66
2017-05-29T19:02:45.130Z,11.64
2017-05-29T19:05:11.901Z,12.32
2017-05-29T19:07:38.642Z,11.20
2017-05-29T19:10:05.344Z,11.34
2017-05-29T19:12:32.059Z,12.06
2017-05-29T19:14:58.849Z,11.98
2017-05-29T19:17:25.538Z,13.96
2017-05-29T19:19:52.293Z,13.78
2017-05-29T19:22:19.128Z,13.08
2017-05-29T19:24:45.822Z,13.86
2017-05-29T19:27:12.510Z,14.12
2017-05-29T19:29:39.246Z,12.66
2017-05-29T19:32:05.970Z,13.62
2017-05-29T19:34:32.714Z,11.26
2017-05-29T19:36:59.412Z,13.06
2017-05-29T19:39:26.122Z,13.10
2017-05-29T19:41:52.874Z,13.44
2017-05-29T19:44:19.650Z,11.82
2017-05-29T19:46:46.346Z,12.56
2017-05-29T19:49:13.075Z,13.96
2017-05-29T19:51:39.770Z,12.24
2017-05-29T19:54:06.514Z,12.98
2017-05-29T19:56:33.226Z,13.16
2017-05-29T19:58:59.925Z,11.92
2017-05-29T20:01:26.943Z,14.22
2017-05-29T20:03:53.666Z,13.34
2017-05-29T20:06:20.418Z,12.32
2017-05-29T20:08:47.211Z,12.80
2017-05-29T20:11:13.886Z,11.24
2017-05-29T20:13:40.623Z,12.62
2017-05-29T20:16:07.364Z,17.84
2017-05-29T20:18:34.054Z,16.00
2017-05-29T20:21:00.792Z,13.52
2017-05-29T20:23:27.517Z,11.80
2017-05-29T20:25:54.253Z,15.42
2017-05-29T20:28:20.959Z,14.40
2017-05-29T20:30:47.663Z,14.92
2017-05-29T20:33:14.439Z,14.60
2017-05-29T20:35:41.134Z,14.80
2017-05-29T20:38:07.930Z,13.98
2017-05-29T20:40:34.694Z,13.42
2017-05-29T20:43:01.410Z,13.24
2017-05-29T20:45:28.098Z,13.14
2017-05-29T20:47:54.870Z,13.68
2017-05-29T20:50:21.598Z,13.74
2017-05-29T20:52:48.355Z,13.06
2017-05-29T20:55:15.075Z,13.22
2017-05-29T20:57:41.781Z,13.08
2017-05-29T21:00:08.541Z,13.58
2017-05-29T21:02:36.017Z,12.26
2017-05-29T21:05:02.714Z,14.20
2017-05-29T21:07:29.470Z,13.92
2017-05-29T21:09:56.190Z,13.98
2017-05-29T21:12:22.922Z,13.76
2017-05-29T21:14:49.605Z,13.96
2017-05-29T21:17:16.365Z,14.42
2017-05-29T21:19:43.058Z,14.20
2017-05-29T21:22:09.774Z,12.72
2017-05-29T21:24:36.524Z,14.42
2017-05-29T21:27:03.247Z,13.32
2017-05-29T21:29:29.942Z,13.36
2017-05-29T21:31:56.661Z,14.08
2017-05-29T21:34:23.410Z,13.08
2017-05-29T21:36:50.106Z,14.14
2017-05-29T21:39:16.819Z,17.96
2017-05-29T21:41:43.571Z,13.50
2017-05-29T21:44:10.273Z,13.36
2017-05-29T21:46:36.995Z,12.98
2017-05-29T21:49:03.738Z,12.94
2017-05-29T21:51:30.469Z,12.32
2017-05-29T21:53:57.183Z,13.60
2017-05-29T21:56:23.172Z,12.50
2017-05-29T21:58:49.942Z,11.32
2017-05-29T22:01:16.679Z,13.72
2017-05-29T22:03:43.396Z,13.76
2017-05-29T22:06:10.130Z,12.66
2017-05-29T22:08:36.826Z,14.18
2017-05-29T22:11:03.591Z,13.26
2017-05-29T22:13:30.283Z,13.04
2017-05-29T22:15:56.979Z,12.48
2017-05-29T22:18:23.721Z,13.02
2017-05-29T22:20:50.407Z,12.70
2017-05-29T22:23:17.158Z,12.32
2017-05-29T22:25:43.924Z,13.56
2017-05-29T22:28:10.658Z,13.30
2017-05-29T22:30:37.355Z,12.78
2017-05-29T22:33:04.101Z,12.28
2017-05-29T22:35:30.796Z,12.10
2017-05-29T22:37:57.486Z,12.70
2017-05-29T22:40:24.228Z,12.52
2017-05-29T22:42:50.973Z,13.28
2017-05-29T22:45:17.682Z,13.24
2017-05-29T22:47:44.408Z,13.52
2017-05-29T22:50:11.142Z,12.56
2017-05-29T22:52:37.847Z,13.00
2017-05-29T22:55:04.542Z,13.08
2017-05-29T22:57:31.278Z,12.18
2017-05-29T22:59:58.003Z,13.18
2017-05-29T23:02:24.771Z,12.32
2017-05-29T23:04:51.464Z,11.02
2017-05-29T23:07:18.173Z,11.92
2017-05-29T23:09:44.965Z,11.82
2017-05-29T23:12:11.684Z,13.54
2017-05-29T23:14:38.424Z,11.70
2017-05-29T23:17:05.114Z,11.58
2017-05-29T23:19:31.807Z,12.38
2017-05-29T23:21:58.547Z,13.04
2017-05-29T23:24:25.546Z,14.28
2017-05-29T23:26:52.248Z,12.88
2017-05-29T23:29:18.939Z,12.52
2017-05-29T23:31:45.690Z,12.90
2017-05-29T23:34:12.410Z,14.18
2017-05-29T23:36:39.158Z,12.76
2017-05-29T23:39:05.905Z,13.22
2017-05-29T23:41:32.646Z,12.44
2017-05-29T23:43:59.333Z,12.62
2017-05-29T23:46:26.031Z,14.50
2017-05-29T23:48:52.770Z,13.34
2017-05-29T23:51:19.510Z,12.20
2017-05-29T23:53:46.207Z,13.02
2017-05-29T23:56:12.974Z,13.14
2017-05-29T23:58:39.666Z,12.32
